Time;durP1;ratioP1;P1;durP2;ratioP2;P2;SDS_P1;SDS_P2;PMS_P1;PMS_P2;Temp;Humidity;BMP_temperature;BMP_pressure;BME280_temperature;BME280_humidity;BME280_pressure;Samples;Min_cycle;Max_cycle;Signal;HPM_P1;HPM_P2
2022/06/10 00:02:24;;;;;;;2.17;1.10;;;18.70;33.00;;;;;;10562258;27;20234;-75
2022/06/10 00:07:34;;;;;;;1.70;1.37;;;18.70;33.10;;;;;;10561160;27;20314;-75
2022/06/10 00:12:37;;;;;;;3.07;1.30;;;18.60;33.10;;;;;;10562598;27;20223;-75
2022/06/10 00:17:40;;;;;;;1.50;1.37;;;18.60;33.20;;;;;;10567462;27;20218;-75
2022/06/10 00:22:45;;;;;;;1.40;1.20;;;18.50;33.30;;;;;;10559754;27;20233;-75
2022/06/10 00:27:48;;;;;;;1.97;1.40;;;18.50;33.60;;;;;;10563927;28;20234;-75
2022/06/10 00:32:52;;;;;;;1.60;1.50;;;18.50;33.40;;;;;;10559101;27;20214;-75
2022/06/10 00:37:57;;;;;;;3.30;1.30;;;18.50;33.40;;;;;;10555169;28;20258;-75
2022/06/10 00:43:01;;;;;;;2.03;1.30;;;18.40;33.80;;;;;;10561055;27;20230;-75
2022/06/10 00:48:04;;;;;;;2.87;1.47;;;18.40;33.50;;;;;;10557989;27;20222;-75
2022/06/10 00:53:14;;;;;;;3.27;1.80;;;18.40;33.70;;;;;;10551533;27;20227;-75
2022/06/10 00:58:22;;;;;;;4.70;1.60;;;18.40;34.20;;;;;;10559042;27;20744;-75
2022/06/10 01:03:25;;;;;;;1.60;1.50;;;18.40;34.30;;;;;;10550928;28;20223;-75
2022/06/10 01:08:29;;;;;;;2.17;1.50;;;18.30;33.80;;;;;;10558204;27;20226;-75
2022/06/10 01:13:42;;;;;;;1.90;1.60;;;18.30;34.40;;;;;;10558412;28;20746;-75
2022/06/10 01:18:54;;;;;;;2.00;1.60;;;18.30;35.00;;;;;;10555303;28;20610;-75
2022/06/10 01:24:28;;;;;;;3.60;1.70;;;18.30;35.00;;;;;;10556895;27;20683;-75
2022/06/10 01:29:52;;;;;;;2.70;1.60;;;18.20;34.90;;;;;;10507693;28;20226;-75
2022/06/10 01:35:09;;;;;;;3.17;1.50;;;18.20;34.90;;;;;;10504352;28;20226;-75
2022/06/10 01:40:24;;;;;;;1.77;1.47;;;18.20;34.90;;;;;;10518507;28;20223;-75
2022/06/10 01:45:38;;;;;;;2.07;1.60;;;18.10;34.80;;;;;;10515606;28;20238;-75
2022/06/10 01:50:47;;;;;;;1.30;1.20;;;18.10;34.80;;;;;;10517182;28;20307;-75
2022/06/10 01:55:57;;;;;;;6.53;1.57;;;18.10;34.80;;;;;;10539755;27;20227;-75
2022/06/10 02:01:05;;;;;;;1.50;1.40;;;18.10;34.90;;;;;;10553590;28;20237;-75
2022/06/10 02:06:14;;;;;;;1.77;1.60;;;18.10;34.80;;;;;;10540153;28;20691;-75
2022/06/10 02:11:21;;;;;;;2.17;1.60;;;18.10;35.10;;;;;;10556219;28;20219;-75
2022/06/10 02:16:28;;;;;;;2.27;1.50;;;18.00;34.70;;;;;;10549224;28;20233;-74
2022/06/10 02:21:42;;;;;;;2.07;1.60;;;18.00;35.30;;;;;;10547191;28;20227;-75
2022/06/10 02:26:47;;;;;;;2.03;1.57;;;17.90;35.80;;;;;;10555321;28;20229;-75
2022/06/10 02:31:55;;;;;;;2.03;1.73;;;17.80;35.40;;;;;;10553033;28;20223;-75
2022/06/10 02:37:07;;;;;;;3.10;1.50;;;17.70;36.00;;;;;;10545676;28;20225;-75
2022/06/10 02:42:16;;;;;;;2.43;1.40;;;17.70;36.30;;;;;;10510552;28;20212;-75
2022/06/10 02:47:27;;;;;;;1.93;1.43;;;17.70;36.20;;;;;;10541185;27;20755;-75
2022/06/10 02:52:35;;;;;;;1.93;1.57;;;17.70;36.20;;;;;;10527495;28;20721;-75
2022/06/10 03:03:22;;;;;;;2.50;1.77;;;17.50;35.60;;;;;;10514618;28;20755;-75
2022/06/10 03:08:32;;;;;;;1.80;1.70;;;17.60;36.70;;;;;;10508165;28;20234;-75
2022/06/10 03:13:47;;;;;;;2.10;1.53;;;17.50;36.60;;;;;;10520039;28;20235;-75
2022/06/10 03:18:56;;;;;;;2.63;1.60;;;17.50;36.60;;;;;;10515747;28;20234;-75
2022/06/10 03:24:08;;;;;;;3.27;1.90;;;17.50;36.60;;;;;;10510553;28;20227;-75
2022/06/10 03:29:19;;;;;;;2.77;1.50;;;17.50;37.30;;;;;;10521204;28;20223;-75
2022/06/10 03:34:28;;;;;;;3.07;1.70;;;17.40;37.00;;;;;;10511779;28;20789;-75
2022/06/10 03:39:33;;;;;;;2.43;1.77;;;17.50;37.10;;;;;;10545520;28;20219;-75
2022/06/10 03:44:37;;;;;;;1.90;1.80;;;17.50;36.70;;;;;;10562633;27;20735;-75
2022/06/10 03:49:51;;;;;;;2.20;1.60;;;17.50;36.20;;;;;;10552675;27;20334;-75
2022/06/10 03:54:55;;;;;;;2.77;1.80;;;17.30;37.10;;;;;;10557266;27;20230;-75
2022/06/10 03:59:58;;;;;;;2.17;1.50;;;17.30;37.00;;;;;;10556718;27;20234;-75
2022/06/10 04:05:02;;;;;;;2.67;1.70;;;17.20;36.70;;;;;;10552541;27;20756;-75
2022/06/10 04:10:09;;;;;;;2.60;1.80;;;17.20;36.90;;;;;;10525234;27;20216;-75
2022/06/10 04:15:14;;;;;;;1.53;1.43;;;17.30;37.60;;;;;;10517915;28;20222;-75
2022/06/10 04:20:20;;;;;;;2.20;1.70;;;17.30;37.20;;;;;;10511629;28;20695;-75
2022/06/10 04:25:25;;;;;;;2.20;1.70;;;17.40;37.40;;;;;;10515829;28;20253;-75
2022/06/10 04:30:31;;;;;;;3.87;1.80;;;17.40;37.60;;;;;;10514938;28;20227;-75
2022/06/10 04:35:37;;;;;;;2.60;1.73;;;17.40;37.50;;;;;;10520124;28;20650;-75
2022/06/10 04:40:42;;;;;;;1.83;1.40;;;17.40;37.40;;;;;;10514296;28;20231;-75
2022/06/10 04:45:48;;;;;;;2.77;1.77;;;17.50;37.60;;;;;;10512445;28;20836;-75
2022/06/10 04:50:52;;;;;;;2.30;1.90;;;17.50;37.80;;;;;;10524955;28;20279;-75
2022/06/10 04:55:56;;;;;;;2.17;1.70;;;17.50;37.20;;;;;;10549979;27;20234;-75
2022/06/10 05:00:59;;;;;;;1.70;1.60;;;17.60;37.60;;;;;;10559238;27;20229;-75
2022/06/10 05:06:03;;;;;;;2.40;1.97;;;17.60;37.40;;;;;;10508825;28;20777;-75
2022/06/10 05:11:08;;;;;;;2.27;1.70;;;17.60;37.20;;;;;;10515030;28;20226;-74
2022/06/10 05:16:12;;;;;;;2.40;1.63;;;17.60;37.80;;;;;;10517053;28;20234;-75
2022/06/10 05:21:15;;;;;;;3.53;2.00;;;17.60;37.60;;;;;;10556711;27;20229;-75
2022/06/10 05:26:20;;;;;;;1.93;1.70;;;17.70;37.60;;;;;;10555647;27;20219;-75
2022/06/10 05:31:23;;;;;;;2.60;1.80;;;17.70;38.00;;;;;;10559341;27;20237;-75
2022/06/10 05:36:26;;;;;;;2.83;2.10;;;17.70;37.80;;;;;;10554178;27;20231;-75
2022/06/10 05:46:51;;;;;;;3.60;2.13;;;17.90;38.00;;;;;;10514305;28;20227;-75
2022/06/10 05:51:55;;;;;;;2.87;2.00;;;17.90;37.90;;;;;;10497632;28;20356;-75
2022/06/10 05:56:59;;;;;;;2.03;1.83;;;18.00;37.70;;;;;;10503115;28;20690;-75
2022/06/10 06:02:05;;;;;;;2.13;1.93;;;18.00;38.20;;;;;;10508511;28;20234;-75
2022/06/10 06:07:10;;;;;;;2.63;2.43;;;18.10;38.30;;;;;;10506542;28;20228;-75
2022/06/10 06:12:15;;;;;;;2.70;2.00;;;18.30;38.00;;;;;;10506235;28;20692;-75
2022/06/10 06:17:20;;;;;;;2.47;2.10;;;18.40;38.20;;;;;;10502896;28;20223;-75
2022/06/10 06:22:23;;;;;;;3.53;2.73;;;18.50;38.00;;;;;;10510512;28;20222;-75
2022/06/10 06:27:28;;;;;;;3.13;2.10;;;18.60;37.80;;;;;;10504933;28;20735;-75
2022/06/10 06:32:31;;;;;;;3.93;2.70;;;18.70;38.20;;;;;;10512878;28;20599;-75
2022/06/10 06:37:34;;;;;;;2.70;2.27;;;18.80;37.60;;;;;;10509294;28;20231;-75
2022/06/10 06:42:39;;;;;;;4.07;3.10;;;18.90;37.60;;;;;;10517524;28;20228;-75
2022/06/10 06:47:43;;;;;;;3.30;2.73;;;19.00;37.50;;;;;;10516728;28;20232;-75
2022/06/10 06:52:46;;;;;;;3.27;2.57;;;19.00;37.50;;;;;;10511427;28;20228;-75
2022/06/10 06:57:51;;;;;;;3.67;2.60;;;19.10;37.50;;;;;;10514139;28;20285;-75
2022/06/10 07:02:54;;;;;;;2.87;2.67;;;19.10;37.80;;;;;;10512124;28;20284;-75
2022/06/10 07:07:58;;;;;;;3.20;2.90;;;19.30;37.80;;;;;;10509267;28;20315;-75
2022/06/10 07:13:03;;;;;;;4.00;3.40;;;19.40;37.90;;;;;;10509013;28;20251;-75
2022/06/10 07:18:07;;;;;;;4.53;3.00;;;19.50;37.90;;;;;;10506131;28;20212;-75
2022/06/10 07:23:10;;;;;;;3.60;3.30;;;19.50;37.70;;;;;;10514738;28;20751;-75
2022/06/10 07:28:16;;;;;;;2.97;2.70;;;19.60;37.80;;;;;;10514503;28;21430;-75
2022/06/10 07:33:20;;;;;;;3.50;3.10;;;19.70;37.50;;;;;;10512863;28;20674;-74
2022/06/10 07:38:25;;;;;;;4.50;3.07;;;19.70;37.60;;;;;;10520424;28;20781;-75
2022/06/10 07:43:32;;;;;;;3.60;3.30;;;19.90;37.40;;;;;;10509880;28;20303;-75
2022/06/10 07:48:35;;;;;;;3.20;2.87;;;20.00;37.30;;;;;;10509077;28;20302;-75
2022/06/10 07:53:41;;;;;;;5.17;3.40;;;20.10;37.50;;;;;;10501475;28;20232;-74
2022/06/10 07:58:47;;;;;;;3.03;2.73;;;20.30;37.40;;;;;;10506825;28;20274;-75
2022/06/10 08:03:50;;;;;;;3.30;3.00;;;20.50;37.20;;;;;;10507619;28;20230;-75
2022/06/10 08:08:54;;;;;;;4.37;3.30;;;20.60;37.40;;;;;;10514446;28;20319;-74
2022/06/10 08:13:58;;;;;;;4.17;3.10;;;20.90;37.30;;;;;;10513116;28;20232;-74
2022/06/10 08:19:02;;;;;;;4.20;2.80;;;21.10;37.50;;;;;;10499722;28;20239;-75
2022/06/10 08:24:06;;;;;;;3.10;2.80;;;21.30;37.60;;;;;;10508494;28;20322;-75
2022/06/10 08:29:12;;;;;;;3.00;2.80;;;21.60;37.20;;;;;;10503325;28;20263;-75
2022/06/10 08:34:15;;;;;;;3.87;2.70;;;21.90;36.70;;;;;;10508422;28;20238;-75
2022/06/10 08:39:19;;;;;;;3.23;2.80;;;22.10;36.80;;;;;;10513757;28;20329;-75
2022/06/10 08:44:31;;;;;;;3.00;2.80;;;22.30;36.10;;;;;;10511627;28;20236;-75
2022/06/10 08:50:01;;;;;;;3.20;2.90;;;22.40;34.60;;;;;;10503245;28;20224;-75
2022/06/10 08:55:20;;;;;;;3.87;3.20;;;22.50;35.50;;;;;;10506201;28;20224;-75
2022/06/10 09:00:27;;;;;;;3.90;2.60;;;22.60;34.80;;;;;;10508671;28;20892;-75
2022/06/10 09:05:35;;;;;;;2.77;2.57;;;22.70;34.60;;;;;;10504888;28;20235;-75
2022/06/10 09:10:43;;;;;;;3.43;2.40;;;22.90;34.70;;;;;;10509189;28;20627;-75
2022/06/10 09:15:54;;;;;;;3.30;2.43;;;23.00;34.00;;;;;;10498282;28;20231;-75
2022/06/10 09:21:02;;;;;;;2.83;2.40;;;23.10;33.10;;;;;;10498670;28;20224;-75
2022/06/10 09:26:10;;;;;;;2.13;2.03;;;23.20;33.20;;;;;;10506791;28;20622;-75
2022/06/10 09:31:28;;;;;;;4.13;2.30;;;23.30;33.50;;;;;;10499975;28;20303;-75
2022/06/10 09:36:40;;;;;;;2.20;2.00;;;23.50;32.80;;;;;;10513161;28;20227;-75
2022/06/10 09:41:53;;;;;;;2.77;2.57;;;23.60;31.80;;;;;;10504946;28;20681;-75
2022/06/10 09:47:12;;;;;;;2.30;2.10;;;23.80;31.80;;;;;;10503688;28;20223;-75
2022/06/10 09:52:21;;;;;;;2.23;2.03;;;23.90;32.20;;;;;;10504335;28;20227;-75
2022/06/10 09:58:06;;;;;;;2.27;2.17;;;23.90;31.10;;;;;;10496972;28;20232;-75
2022/06/10 10:03:25;;;;;;;2.30;2.10;;;23.90;30.30;;;;;;10533151;28;20225;-75
2022/06/10 10:08:38;;;;;;;2.20;2.00;;;23.70;30.30;;;;;;10550861;27;20230;-75
2022/06/10 10:13:54;;;;;;;2.50;2.10;;;23.60;30.60;;;;;;10553225;27;20227;-75
2022/06/10 10:19:19;;;;;;;2.20;2.10;;;23.60;30.90;;;;;;10509915;28;20249;-74
2022/06/10 10:24:25;;;;;;;2.23;2.07;;;23.70;31.80;;;;;;10538992;27;20241;-74
2022/06/10 10:29:34;;;;;;;1.97;1.50;;;23.90;31.00;;;;;;10531257;27;20228;-75
2022/06/10 10:34:41;;;;;;;2.80;1.80;;;24.10;31.50;;;;;;10548549;27;20720;-75
2022/06/10 10:39:52;;;;;;;1.97;1.87;;;24.30;30.60;;;;;;10550473;27;20242;-75
2022/06/10 10:45:03;;;;;;;2.40;2.20;;;24.50;29.70;;;;;;10551073;27;20234;-75
2022/06/10 10:50:19;;;;;;;2.03;1.93;;;24.70;30.00;;;;;;10546586;27;20234;-75
2022/06/10 10:55:29;;;;;;;1.90;1.80;;;24.80;30.00;;;;;;10550524;27;20241;-75
2022/06/10 11:00:37;;;;;;;1.97;1.87;;;24.90;28.80;;;;;;10542205;27;20224;-75
2022/06/10 11:05:49;;;;;;;1.80;1.70;;;25.00;28.70;;;;;;10543303;27;20235;-75
2022/06/10 11:11:08;;;;;;;2.13;1.70;;;24.90;27.90;;;;;;10541307;27;20289;-75
2022/06/10 11:16:34;;;;;;;2.70;1.80;;;24.90;28.60;;;;;;10537573;28;20227;-75
2022/06/10 11:21:54;;;;;;;2.27;2.00;;;24.90;28.70;;;;;;10548757;27;20235;-75
2022/06/10 11:27:00;;;;;;;1.97;1.87;;;24.90;28.70;;;;;;10546543;27;20235;-75
2022/06/10 11:32:07;;;;;;;2.20;1.90;;;24.80;28.80;;;;;;10549663;27;20223;-75
2022/06/10 11:37:26;;;;;;;2.10;1.90;;;24.70;29.20;;;;;;10553243;27;20219;-74
2022/06/10 11:42:35;;;;;;;1.80;1.70;;;24.70;29.30;;;;;;10555633;27;20330;-75
2022/06/10 11:47:42;;;;;;;2.00;1.77;;;24.70;29.40;;;;;;10550160;27;20261;-75
2022/06/10 11:53:00;;;;;;;3.70;2.00;;;24.70;28.50;;;;;;10554043;27;20229;-75
2022/06/10 12:03:53;;;;;;;1.97;1.87;;;24.80;28.80;;;;;;10549933;27;20809;-75
2022/06/10 12:09:05;;;;;;;2.00;1.90;;;24.80;28.60;;;;;;10550263;27;20254;-75
2022/06/10 12:14:16;;;;;;;2.77;1.87;;;24.90;28.60;;;;;;10552918;27;20223;-75
2022/06/10 12:19:28;;;;;;;1.90;1.80;;;24.90;28.70;;;;;;10544106;28;20586;-74
2022/06/10 12:24:32;;;;;;;1.90;1.80;;;25.00;28.70;;;;;;10549032;27;20241;-75
2022/06/10 12:29:42;;;;;;;2.00;1.90;;;25.20;28.80;;;;;;10547561;28;20219;-74
2022/06/10 12:34:56;;;;;;;4.10;1.80;;;25.20;28.50;;;;;;10551643;27;20235;-75
2022/06/10 12:40:06;;;;;;;1.93;1.83;;;25.20;28.30;;;;;;10545723;27;22229;-74
2022/06/10 12:45:19;;;;;;;1.90;1.80;;;25.40;27.90;;;;;;10526017;27;20224;-75
2022/06/10 12:50:25;;;;;;;1.90;1.70;;;25.40;28.00;;;;;;10543425;27;20230;-75
2022/06/10 12:55:36;;;;;;;1.77;1.67;;;25.40;28.60;;;;;;10550000;27;20235;-75
2022/06/10 13:00:42;;;;;;;2.00;1.90;;;25.40;27.80;;;;;;10546581;27;20712;-75
2022/06/10 13:05:48;;;;;;;2.10;1.60;;;25.60;28.10;;;;;;10537985;28;20232;-75
2022/06/10 13:10:57;;;;;;;1.90;1.80;;;25.70;28.30;;;;;;10551215;27;20219;-75
2022/06/10 13:16:36;;;;;;;1.60;1.43;;;25.80;27.60;;;;;;10551625;27;20249;-75
2022/06/10 13:21:40;;;;;;;1.80;1.70;;;26.00;27.60;;;;;;10551826;27;20240;-75
2022/06/10 13:26:44;;;;;;;1.60;1.50;;;26.20;28.00;;;;;;10549199;27;20242;-75
2022/06/10 13:31:50;;;;;;;2.07;1.90;;;26.30;26.80;;;;;;10549991;27;20231;-75
2022/06/10 13:36:57;;;;;;;1.80;1.70;;;26.40;26.50;;;;;;10550733;27;20755;-75
2022/06/10 13:42:03;;;;;;;1.53;1.40;;;26.50;26.20;;;;;;10546087;27;20243;-75
2022/06/10 13:47:20;;;;;;;1.50;1.40;;;26.50;26.30;;;;;;10548945;27;20754;-75
2022/06/10 13:52:30;;;;;;;2.80;1.40;;;26.60;26.60;;;;;;10548880;27;20234;-75
2022/06/10 13:57:36;;;;;;;1.70;1.60;;;26.60;25.00;;;;;;10545796;27;20234;-75
2022/06/10 14:02:42;;;;;;;1.67;1.57;;;26.70;25.60;;;;;;10544124;27;20228;-75
2022/06/10 14:07:47;;;;;;;1.40;1.30;;;26.60;25.30;;;;;;10544718;27;20235;-74
2022/06/10 14:12:58;;;;;;;1.60;1.50;;;26.60;25.50;;;;;;10543329;27;20236;-74
2022/06/10 14:18:02;;;;;;;1.80;1.70;;;26.60;24.50;;;;;;10540675;28;20236;-75
2022/06/10 14:23:10;;;;;;;1.90;1.80;;;26.60;24.80;;;;;;10530875;27;20215;-75
2022/06/10 14:28:17;;;;;;;2.00;1.80;;;26.50;24.50;;;;;;10547388;27;20219;-75
2022/06/10 14:33:27;;;;;;;1.63;1.53;;;26.60;24.30;;;;;;10540462;27;20943;-75
2022/06/10 14:38:30;;;;;;;1.70;1.40;;;26.60;24.10;;;;;;10536698;27;20224;-75
2022/06/10 14:43:38;;;;;;;1.70;1.60;;;26.70;25.00;;;;;;10544468;27;20708;-75
2022/06/10 14:48:44;;;;;;;1.57;1.47;;;26.80;24.10;;;;;;10540922;28;20277;-75
2022/06/10 14:53:50;;;;;;;1.70;1.60;;;26.80;24.40;;;;;;10547309;27;20226;-75
2022/06/10 14:58:55;;;;;;;2.00;1.50;;;26.90;24.60;;;;;;10557286;27;20746;-75
2022/06/10 15:03:59;;;;;;;1.60;1.50;;;26.90;24.10;;;;;;10544850;28;20261;-75
2022/06/10 15:09:10;;;;;;;1.60;1.50;;;26.90;24.40;;;;;;10554867;27;20227;-75
2022/06/10 15:14:16;;;;;;;1.50;1.40;;;27.00;23.50;;;;;;10549019;27;20227;-75
2022/06/10 15:19:20;;;;;;;1.60;1.50;;;26.90;23.40;;;;;;10553327;27;20226;-75
2022/06/10 15:24:26;;;;;;;1.50;1.40;;;27.00;24.10;;;;;;10549578;28;20770;-75
2022/06/10 15:29:30;;;;;;;1.67;1.30;;;27.00;23.40;;;;;;10548715;27;20228;-75
2022/06/10 15:40:42;;;;;;;1.13;1.13;;;27.10;23.50;;;;;;10549096;27;20242;-75
2022/06/10 15:45:19;;;;;;;1.20;1.20;;;27.20;23.50;;;;;;10550796;27;20245;-74
2022/06/10 15:50:23;;;;;;;1.17;1.10;;;27.20;23.20;;;;;;10549775;27;20322;-75
2022/06/10 16:00:52;;;;;;;1.40;1.30;;;27.20;22.80;;;;;;10553430;27;20237;-75
2022/06/10 16:05:55;;;;;;;1.73;1.30;;;27.30;22.40;;;;;;10547980;27;20231;-75
2022/06/10 16:10:59;;;;;;;1.50;1.40;;;27.30;23.10;;;;;;10558644;27;20253;-75
2022/06/10 16:16:06;;;;;;;1.53;1.43;;;27.40;22.60;;;;;;10552661;27;20306;-75
2022/06/10 16:21:13;;;;;;;1.50;1.40;;;27.20;22.30;;;;;;10552832;27;20218;-75
2022/06/10 16:26:20;;;;;;;1.50;1.40;;;27.20;22.30;;;;;;10551665;27;20222;-75
2022/06/10 16:31:30;;;;;;;1.40;1.30;;;27.20;22.60;;;;;;10547309;27;20230;-74
2022/06/10 16:36:34;;;;;;;1.00;1.00;;;27.20;21.60;;;;;;10547941;27;20224;-75
2022/06/10 16:41:39;;;;;;;2.30;1.60;;;27.20;22.20;;;;;;10547835;28;20619;-75
2022/06/10 16:46:46;;;;;;;1.30;1.27;;;27.20;22.00;;;;;;10546892;27;20711;-75
2022/06/10 16:51:49;;;;;;;1.13;1.13;;;27.20;22.40;;;;;;10552871;27;20650;-75
2022/06/10 16:56:53;;;;;;;1.40;1.30;;;27.20;22.10;;;;;;10549259;27;20231;-75
2022/06/10 17:02:00;;;;;;;1.30;1.20;;;27.20;22.10;;;;;;10549610;27;20769;-75
2022/06/10 17:07:06;;;;;;;1.47;1.37;;;27.20;22.00;;;;;;10552944;27;20235;-74
2022/06/10 17:12:12;;;;;;;1.33;1.23;;;27.30;21.90;;;;;;10542204;27;20236;-75
2022/06/10 17:17:22;;;;;;;1.20;1.10;;;27.30;21.40;;;;;;10550087;27;20659;-74
2022/06/10 17:22:31;;;;;;;1.30;1.20;;;27.20;21.20;;;;;;10547702;27;20765;-75
2022/06/10 17:27:38;;;;;;;1.60;1.20;;;27.20;21.60;;;;;;10546138;27;20224;-75
2022/06/10 17:32:43;;;;;;;1.10;1.10;;;27.30;21.30;;;;;;10545237;27;20246;-75
2022/06/10 17:37:46;;;;;;;1.13;1.10;;;27.30;21.60;;;;;;10551095;27;20597;-75
2022/06/10 17:42:50;;;;;;;1.30;1.20;;;27.30;21.80;;;;;;10548294;27;20234;-75
2022/06/10 17:47:55;;;;;;;1.73;1.20;;;27.40;21.50;;;;;;10550295;27;20713;-74
2022/06/10 17:52:58;;;;;;;1.10;1.10;;;27.40;21.30;;;;;;10547664;27;20232;-75
2022/06/10 17:58:02;;;;;;;1.60;1.40;;;27.40;21.50;;;;;;10547408;27;20227;-75
2022/06/10 18:03:16;;;;;;;1.10;1.00;;;27.50;21.50;;;;;;10550865;27;20947;-75
2022/06/10 18:08:29;;;;;;;1.10;1.00;;;27.50;21.10;;;;;;10551963;27;20694;-74
2022/06/10 18:19:04;;;;;;;1.10;1.00;;;27.40;21.50;;;;;;10534940;27;20265;-75
2022/06/10 18:24:11;;;;;;;1.03;1.03;;;27.30;21.40;;;;;;10550362;27;20230;-75
2022/06/10 18:29:27;;;;;;;1.30;1.20;;;27.20;21.90;;;;;;10550703;27;20230;-75
2022/06/10 18:34:31;;;;;;;1.50;1.00;;;27.10;22.00;;;;;;10556685;27;20236;-74
2022/06/10 18:39:35;;;;;;;1.53;1.33;;;27.00;22.40;;;;;;10556355;27;20219;-74
2022/06/10 18:44:38;;;;;;;1.97;1.27;;;26.80;22.70;;;;;;10556193;27;20235;-75
2022/06/10 18:49:43;;;;;;;1.33;1.33;;;26.70;23.00;;;;;;10558141;27;20238;-74
2022/06/10 18:54:49;;;;;;;3.07;1.30;;;26.60;23.30;;;;;;10554829;27;20238;-75
2022/06/10 18:59:53;;;;;;;1.50;1.40;;;26.50;23.40;;;;;;10550149;27;20226;-75
2022/06/10 19:04:59;;;;;;;1.60;1.20;;;26.40;23.20;;;;;;10559041;27;20230;-74
2022/06/10 19:10:03;;;;;;;1.57;1.47;;;26.10;23.40;;;;;;10548321;27;20234;-74
2022/06/10 19:15:07;;;;;;;1.50;1.40;;;25.90;23.50;;;;;;10557448;27;20238;-74
2022/06/10 19:20:23;;;;;;;1.20;1.10;;;25.80;23.90;;;;;;10548563;28;20688;-74
2022/06/10 19:25:29;;;;;;;1.20;1.10;;;25.60;24.00;;;;;;10558256;28;20603;-74
2022/06/10 19:30:32;;;;;;;1.37;1.20;;;25.50;24.20;;;;;;10555568;27;20238;-74
2022/06/10 19:35:40;;;;;;;1.53;1.23;;;25.30;24.20;;;;;;10554425;27;20283;-74
2022/06/10 19:40:46;;;;;;;1.37;1.23;;;25.20;24.50;;;;;;10554496;27;20223;-74
2022/06/10 19:45:51;;;;;;;2.17;1.40;;;25.10;24.50;;;;;;10552521;28;20239;-74
2022/06/10 19:50:59;;;;;;;1.73;1.50;;;25.00;24.50;;;;;;10554996;27;20267;-74
2022/06/10 19:56:06;;;;;;;1.70;1.60;;;24.90;24.80;;;;;;10557933;28;20234;-74
2022/06/10 20:01:17;;;;;;;1.83;1.67;;;24.80;24.90;;;;;;10550312;28;20672;-74
2022/06/10 20:06:24;;;;;;;1.80;1.70;;;24.70;25.10;;;;;;10546814;27;20225;-74
2022/06/10 20:11:27;;;;;;;1.80;1.70;;;24.50;25.10;;;;;;10559598;28;20326;-74
2022/06/10 20:16:30;;;;;;;2.00;1.80;;;24.20;25.00;;;;;;10555516;27;20229;-74
2022/06/10 20:21:35;;;;;;;1.77;1.60;;;23.90;25.20;;;;;;10553902;27;20306;-74
2022/06/10 20:26:39;;;;;;;2.80;2.60;;;23.60;25.60;;;;;;10548516;28;20235;-74
2022/06/10 20:31:46;;;;;;;2.40;2.20;;;23.40;25.80;;;;;;10554854;28;20238;-74
2022/06/10 20:36:52;;;;;;;3.30;3.10;;;23.30;26.40;;;;;;10554316;27;20230;-74
2022/06/10 20:41:55;;;;;;;3.97;3.50;;;23.20;26.50;;;;;;10562378;27;20225;-74
2022/06/10 20:47:03;;;;;;;4.00;3.70;;;23.10;26.20;;;;;;10553797;28;20222;-74
2022/06/10 20:52:16;;;;;;;3.20;2.90;;;23.00;26.70;;;;;;10556750;27;20227;-74
2022/06/10 20:57:23;;;;;;;3.37;2.40;;;22.90;27.30;;;;;;10556892;28;20882;-74
2022/06/10 21:02:30;;;;;;;2.20;2.00;;;22.80;27.20;;;;;;10551185;28;20314;-74
2022/06/10 21:07:38;;;;;;;2.13;1.93;;;22.70;27.10;;;;;;10553952;27;20703;-74
2022/06/10 21:12:43;;;;;;;2.17;1.97;;;22.50;27.00;;;;;;10545676;27;20231;-74
2022/06/10 21:17:48;;;;;;;3.53;2.03;;;22.30;26.90;;;;;;10555226;28;20261;-74
2022/06/10 21:22:53;;;;;;;1.73;1.63;;;22.20;27.20;;;;;;10555464;28;20339;-74
2022/06/10 21:27:56;;;;;;;2.27;1.87;;;22.20;27.50;;;;;;10557944;28;20230;-74
2022/06/10 21:33:02;;;;;;;1.97;1.87;;;22.10;27.40;;;;;;10552372;28;20225;-74
2022/06/10 21:38:12;;;;;;;2.07;1.97;;;22.10;27.70;;;;;;10551098;28;20220;-74
2022/06/10 21:48:42;;;;;;;1.87;1.77;;;22.00;27.80;;;;;;10554226;28;20219;-74
2022/06/10 21:53:51;;;;;;;2.60;2.40;;;21.90;28.10;;;;;;10554308;28;20233;-74
2022/06/10 21:58:56;;;;;;;2.67;2.37;;;21.80;28.50;;;;;;10557528;28;20595;-74
2022/06/10 22:04:02;;;;;;;2.43;2.20;;;21.80;28.00;;;;;;10554609;28;20229;-74
2022/06/10 22:09:17;;;;;;;2.30;2.20;;;21.70;28.10;;;;;;10551979;28;20220;-74
2022/06/10 22:14:20;;;;;;;2.60;2.40;;;21.60;28.40;;;;;;10542707;28;20237;-74
2022/06/10 22:19:27;;;;;;;2.20;2.00;;;21.50;28.00;;;;;;10547725;28;20309;-74
2022/06/10 22:24:34;;;;;;;2.73;2.53;;;21.50;28.50;;;;;;10549413;28;20240;-74
2022/06/10 22:29:38;;;;;;;2.17;1.97;;;21.30;28.70;;;;;;10554877;28;20245;-74
2022/06/10 22:34:43;;;;;;;2.10;1.87;;;21.10;28.20;;;;;;10554886;28;20233;-74
2022/06/10 22:39:48;;;;;;;2.50;2.30;;;21.00;28.60;;;;;;10553508;28;20933;-74
2022/06/10 22:44:55;;;;;;;2.80;2.37;;;20.90;29.10;;;;;;10552351;28;20245;-74
2022/06/10 22:50:01;;;;;;;2.43;2.13;;;20.80;28.80;;;;;;10553266;28;20261;-74
2022/06/10 22:55:09;;;;;;;2.57;2.37;;;20.70;29.20;;;;;;10552258;28;20246;-74
2022/06/10 23:00:34;;;;;;;2.40;2.20;;;20.70;29.40;;;;;;10542462;28;20231;-74
2022/06/10 23:11:02;;;;;;;3.17;2.40;;;20.60;29.50;;;;;;10552695;28;20229;-74
2022/06/10 23:16:10;;;;;;;2.43;2.27;;;20.50;29.50;;;;;;10558924;27;20219;-74
2022/06/10 23:21:16;;;;;;;2.50;2.30;;;20.50;29.50;;;;;;10554889;27;20729;-74
2022/06/10 23:26:23;;;;;;;2.73;2.50;;;20.40;29.40;;;;;;10565697;28;20622;-74
2022/06/10 23:31:29;;;;;;;2.67;2.43;;;20.30;29.60;;;;;;10560849;27;20231;-74
2022/06/10 23:36:39;;;;;;;3.00;2.73;;;20.10;29.60;;;;;;10562049;28;20231;-74
2022/06/10 23:42:02;;;;;;;2.70;2.50;;;20.00;30.10;;;;;;10561339;27;20231;-74
2022/06/10 23:52:28;;;;;;;3.67;2.60;;;19.90;29.90;;;;;;10559635;28;20227;-74
2022/06/10 23:57:33;;;;;;;2.77;2.57;;;19.80;29.80;;;;;;10561926;28;20241;-74
